createdAt,value
2019-05-21T00:01:40.731Z,55.88
2019-05-21T00:04:27.518Z,57.88
2019-05-21T00:06:47.739Z,59.83
2019-05-21T00:09:20.413Z,60.70
2019-05-21T00:11:52.653Z,61.86
2019-05-21T00:14:25.359Z,64.19
2019-05-21T00:16:58.092Z,56.18
2019-05-21T00:19:31.482Z,53.82
2019-05-21T00:22:04.113Z,56.15
2019-05-21T00:24:36.930Z,58.58
2019-05-21T00:27:09.581Z,59.99
2019-05-21T00:30:36.782Z,61.46
2019-05-21T00:34:03.477Z,62.53
2019-05-21T00:37:30.588Z,61.51
2019-05-21T00:40:57.693Z,52.30
2019-05-21T00:43:47.115Z,54.73
2019-05-21T00:46:19.806Z,57.13
2019-05-21T00:48:52.415Z,58.64
2019-05-21T00:51:25.095Z,60.05
2019-05-21T00:53:57.679Z,61.53
2019-05-21T00:56:30.349Z,62.54
2019-05-21T00:59:03.037Z,63.73
2019-05-21T01:01:35.723Z,55.72
2019-05-21T01:04:08.388Z,52.90
2019-05-21T01:06:42.548Z,55.15
2019-05-21T01:09:15.291Z,57.42
2019-05-21T01:11:47.560Z,59.30
2019-05-21T01:14:21.735Z,60.98
2019-05-21T01:19:40.447Z,62.88
2019-05-21T01:22:13.330Z,54.71
2019-05-21T01:24:46.011Z,52.38
2019-05-21T01:27:18.592Z,54.93
2019-05-21T01:29:50.845Z,57.04
2019-05-21T01:32:23.635Z,58.75
2019-05-21T01:34:56.357Z,60.21
2019-05-21T01:37:28.888Z,61.51
2019-05-21T01:40:01.512Z,63.05
2019-05-21T01:42:34.352Z,63.76
2019-05-21T01:45:09.489Z,55.35
2019-05-21T01:47:41.815Z,52.98
2019-05-21T01:50:14.449Z,55.47
2019-05-21T01:52:47.115Z,58.01
2019-05-21T01:55:19.792Z,60.15
2019-05-21T01:57:52.472Z,61.49
2019-05-21T02:00:25.253Z,62.93
2019-05-21T02:02:57.831Z,64.33
2019-05-21T02:05:33.445Z,56.77
2019-05-21T02:08:05.339Z,53.87
2019-05-21T02:10:38.065Z,56.89
2019-05-21T02:13:10.293Z,59.47
2019-05-21T02:15:43.370Z,61.17
2019-05-21T02:18:16.054Z,62.84
2019-05-21T02:20:48.734Z,63.97
2019-05-21T02:23:21.334Z,56.50
2019-05-21T02:25:54.095Z,53.67
2019-05-21T02:28:26.333Z,56.34
2019-05-21T02:30:58.951Z,58.75
2019-05-21T02:33:31.159Z,60.54
2019-05-21T02:36:03.793Z,61.78
2019-05-21T02:38:36.010Z,64.83
2019-05-21T02:41:08.266Z,62.47
2019-05-21T02:43:40.903Z,54.57
2019-05-21T02:46:13.576Z,52.78
2019-05-21T02:48:45.795Z,55.26
2019-05-21T02:51:18.427Z,57.39
2019-05-21T02:53:51.159Z,59.08
2019-05-21T02:56:23.785Z,60.46
2019-05-21T02:58:56.329Z,61.30
2019-05-21T03:01:39.209Z,62.80
2019-05-21T03:04:11.984Z,64.14
2019-05-21T03:06:45.871Z,55.88
2019-05-21T03:09:18.651Z,53.20
2019-05-21T03:11:51.432Z,55.59
2019-05-21T03:14:24.318Z,57.91
2019-05-21T03:16:57.305Z,59.92
2019-05-21T03:19:30.134Z,61.49
2019-05-21T03:22:02.763Z,62.51
2019-05-21T03:24:35.546Z,63.63
2019-05-21T03:27:09.760Z,54.83
2019-05-21T03:29:42.439Z,53.25
2019-05-21T03:32:15.115Z,56.09
2019-05-21T03:34:47.550Z,58.04
2019-05-21T03:37:20.166Z,59.80
2019-05-21T03:39:52.710Z,60.94
2019-05-21T03:42:25.323Z,62.55
2019-05-21T03:45:00.309Z,63.61
2019-05-21T03:47:32.323Z,55.20
2019-05-21T03:50:06.845Z,52.25
2019-05-21T03:52:40.444Z,54.64
2019-05-21T03:55:13.940Z,57.02
2019-05-21T03:57:46.623Z,59.11
2019-05-21T04:00:20.646Z,60.40
2019-05-21T04:02:53.296Z,61.67
2019-05-21T04:05:27.933Z,62.70
2019-05-21T04:08:00.616Z,63.38
2019-05-21T04:10:33.195Z,54.87
2019-05-21T04:13:09.442Z,52.82
2019-05-21T04:15:50.987Z,55.02
2019-05-21T04:18:31.199Z,57.43
2019-05-21T04:21:03.883Z,59.73
2019-05-21T04:23:37.171Z,61.23
2019-05-21T04:26:10.055Z,62.70
2019-05-21T04:28:42.299Z,63.41
2019-05-21T04:31:15.013Z,55.19
2019-05-21T04:33:48.807Z,52.68
2019-05-21T04:36:21.066Z,54.71
2019-05-21T04:38:54.065Z,56.92
2019-05-21T04:41:26.743Z,58.57
2019-05-21T04:43:59.378Z,59.92
2019-05-21T04:46:32.011Z,61.37
2019-05-21T04:49:04.629Z,61.92
2019-05-21T04:51:37.250Z,62.86
2019-05-21T04:54:09.842Z,63.23
2019-05-21T04:56:42.410Z,54.30
2019-05-21T04:59:14.984Z,51.85
2019-05-21T05:01:47.243Z,54.10
2019-05-21T05:04:21.921Z,55.99
2019-05-21T05:06:53.934Z,57.52
2019-05-21T05:09:27.283Z,59.45
2019-05-21T05:11:59.915Z,60.40
2019-05-21T05:14:33.523Z,61.09
2019-05-21T05:17:06.194Z,62.17
2019-05-21T05:19:39.802Z,62.18
2019-05-21T05:22:12.479Z,53.36
2019-05-21T05:24:45.157Z,50.56
2019-05-21T05:27:17.831Z,53.35
2019-05-21T05:29:51.435Z,55.40
2019-05-21T05:32:24.055Z,56.57
2019-05-21T05:34:56.263Z,58.10
2019-05-21T05:37:42.779Z,58.77
2019-05-21T05:40:02.789Z,59.86
2019-05-21T05:42:35.449Z,60.72
2019-05-21T05:45:09.349Z,60.73
2019-05-21T05:47:42.030Z,61.17
2019-05-21T05:50:16.353Z,63.66
2019-05-21T05:52:49.090Z,58.55
2019-05-21T05:55:21.669Z,53.19
2019-05-21T05:57:55.227Z,54.21
2019-05-21T06:00:27.790Z,56.99
2019-05-21T06:03:01.486Z,57.45
2019-05-21T06:05:34.058Z,56.77
2019-05-21T06:08:06.945Z,57.83
2019-05-21T06:10:40.225Z,58.17
2019-05-21T06:13:14.567Z,59.20
2019-05-21T06:15:47.289Z,59.99
2019-05-21T06:18:19.912Z,59.72
2019-05-21T06:20:52.605Z,60.31
2019-05-21T06:23:25.273Z,60.11
2019-05-21T06:25:59.845Z,60.54
2019-05-21T06:28:32.087Z,61.10
2019-05-21T06:31:05.230Z,61.54
2019-05-21T06:33:37.930Z,61.51
2019-05-21T06:36:10.508Z,60.59
2019-05-21T06:38:43.190Z,60.44
2019-05-21T06:41:15.786Z,60.99
2019-05-21T06:43:48.446Z,62.31
2019-05-21T06:46:21.025Z,60.93
2019-05-21T06:48:53.703Z,51.25
2019-05-21T06:51:26.274Z,51.19
2019-05-21T06:53:58.954Z,53.52
2019-05-21T06:56:31.638Z,53.54
2019-05-21T06:59:05.239Z,54.62
2019-05-21T07:01:38.586Z,53.51
2019-05-21T07:04:11.216Z,54.86
2019-05-21T07:06:44.903Z,55.04
2019-05-21T07:09:18.306Z,56.31
2019-05-21T07:11:50.983Z,55.69
2019-05-21T07:14:23.868Z,54.85
2019-05-21T07:16:56.548Z,55.57
2019-05-21T07:19:28.814Z,55.22
2019-05-21T07:22:12.214Z,55.97
2019-05-21T07:24:35.444Z,56.38
2019-05-21T07:27:07.689Z,53.73
2019-05-21T07:29:40.560Z,55.53
2019-05-21T07:32:13.241Z,57.66
2019-05-21T07:34:46.840Z,56.73
2019-05-21T07:37:19.516Z,54.39
2019-05-21T07:39:52.096Z,51.24
2019-05-21T07:42:25.287Z,52.81
2019-05-21T07:44:57.868Z,53.42
2019-05-21T07:47:30.644Z,52.56
2019-05-21T07:50:02.856Z,52.85
2019-05-21T07:52:35.489Z,54.47
2019-05-21T07:55:08.175Z,53.03
2019-05-21T07:57:41.006Z,53.46
2019-05-21T08:00:14.663Z,54.02
2019-05-21T08:02:47.390Z,53.27
2019-05-21T08:05:20.029Z,52.73
2019-05-21T08:07:52.691Z,53.21
2019-05-21T08:10:25.242Z,53.07
2019-05-21T08:12:57.853Z,50.33
2019-05-21T08:15:30.630Z,52.30
2019-05-21T08:18:09.531Z,53.61
2019-05-21T08:20:44.806Z,51.16
2019-05-21T08:23:20.342Z,51.73
2019-05-21T08:26:09.008Z,52.63
2019-05-21T08:29:00.196Z,49.02
2019-05-21T08:31:38.558Z,51.18
2019-05-21T08:34:14.056Z,50.39
2019-05-21T08:36:49.371Z,48.60
2019-05-21T08:39:29.157Z,50.35
2019-05-21T08:42:02.470Z,49.70
2019-05-21T08:44:38.762Z,49.32
2019-05-21T08:47:17.096Z,49.52
2019-05-21T08:49:52.645Z,46.33
2019-05-21T08:52:25.709Z,46.99
2019-05-21T08:54:58.648Z,47.91
2019-05-21T08:57:39.083Z,45.98
2019-05-21T09:00:22.880Z,46.12
2019-05-21T09:03:05.193Z,45.79
2019-05-21T09:05:42.663Z,46.65
2019-05-21T09:08:21.119Z,45.45
2019-05-21T09:10:58.155Z,44.84
2019-05-21T09:13:36.487Z,46.76
2019-05-21T09:16:22.107Z,45.26
2019-05-21T09:18:59.918Z,44.32
2019-05-21T09:21:39.529Z,44.11
2019-05-21T09:24:18.484Z,45.49
2019-05-21T09:26:55.572Z,44.30
2019-05-21T09:29:30.043Z,43.56
2019-05-21T09:32:02.927Z,44.55
2019-05-21T09:34:48.167Z,44.59
2019-05-21T09:37:19.221Z,43.28
2019-05-21T09:39:44.510Z,41.02
2019-05-21T09:42:17.330Z,42.31
2019-05-21T09:44:49.866Z,44.09
2019-05-21T09:47:22.598Z,43.83
2019-05-21T09:49:55.839Z,44.09
2019-05-21T09:52:29.917Z,44.12
2019-05-21T09:55:02.634Z,44.63
2019-05-21T09:57:53.172Z,42.78
2019-05-21T10:00:33.180Z,43.44
2019-05-21T10:03:14.748Z,44.36
2019-05-21T10:05:47.348Z,44.04
2019-05-21T10:08:20.036Z,43.23
2019-05-21T10:10:52.906Z,43.99
2019-05-21T10:13:25.515Z,43.62
2019-05-21T10:16:01.209Z,43.60
2019-05-21T10:18:32.789Z,43.50
2019-05-21T10:21:05.788Z,44.80
2019-05-21T10:23:38.512Z,41.83
2019-05-21T10:26:11.133Z,41.76
2019-05-21T10:28:43.810Z,41.53
2019-05-21T10:31:16.545Z,44.82
2019-05-21T10:33:49.273Z,43.18
2019-05-21T10:36:21.853Z,39.43
2019-05-21T10:38:54.530Z,38.94
2019-05-21T10:41:27.110Z,37.91
2019-05-21T10:43:59.900Z,38.94
2019-05-21T10:46:32.565Z,38.15
2019-05-21T10:49:05.549Z,41.41
2019-05-21T10:51:38.137Z,41.59
2019-05-21T10:54:10.866Z,42.33
2019-05-21T10:56:48.152Z,43.49
2019-05-21T10:59:17.810Z,44.20
2019-05-21T11:01:58.163Z,43.90
2019-05-21T11:04:35.465Z,44.10
2019-05-21T11:07:09.365Z,45.09
2019-05-21T11:09:42.254Z,45.82
2019-05-21T11:12:15.653Z,46.69
2019-05-21T11:14:48.229Z,45.63
2019-05-21T11:17:21.926Z,45.84
2019-05-21T11:19:54.606Z,46.21
2019-05-21T11:22:27.275Z,48.71
2019-05-21T11:24:59.856Z,48.30
2019-05-21T11:27:32.530Z,48.62
2019-05-21T11:30:09.314Z,47.05
2019-05-21T11:32:41.987Z,47.71
2019-05-21T11:35:15.386Z,46.80
2019-05-21T11:37:48.279Z,46.48
2019-05-21T11:40:23.421Z,45.71
2019-05-21T11:42:56.428Z,45.56
2019-05-21T11:45:32.707Z,45.43
2019-05-21T11:48:03.697Z,45.71
2019-05-21T11:50:36.111Z,47.47
2019-05-21T11:53:08.748Z,46.80
2019-05-21T11:55:41.430Z,47.37
2019-05-21T11:58:14.023Z,47.01
2019-05-21T12:00:46.784Z,47.15
2019-05-21T12:03:19.464Z,46.66
2019-05-21T12:05:51.830Z,46.65
2019-05-21T12:08:24.522Z,46.30
2019-05-21T12:10:57.093Z,46.49
2019-05-21T12:13:29.976Z,46.93
2019-05-21T12:16:02.554Z,45.90
2019-05-21T12:18:35.233Z,48.33
2019-05-21T12:21:08.014Z,47.23
2019-05-21T12:23:40.793Z,47.09
2019-05-21T12:26:13.475Z,46.54
2019-05-21T12:28:47.157Z,45.54
2019-05-21T12:31:19.815Z,48.56
2019-05-21T12:33:52.637Z,51.94
2019-05-21T12:36:25.340Z,52.25
2019-05-21T12:39:13.014Z,52.02
2019-05-21T12:41:34.900Z,53.04
2019-05-21T12:44:07.658Z,54.54
2019-05-21T12:46:40.236Z,55.80
2019-05-21T12:49:14.354Z,55.47
2019-05-21T12:51:47.229Z,55.21
2019-05-21T12:54:19.914Z,56.83
2019-05-21T12:56:52.700Z,56.97
2019-05-21T12:59:25.602Z,55.66
2019-05-21T13:01:58.367Z,56.07
2019-05-21T13:04:31.344Z,55.71
2019-05-21T13:07:04.021Z,54.65
2019-05-21T13:09:36.810Z,55.82
2019-05-21T13:12:09.892Z,55.66
2019-05-21T13:14:42.833Z,53.80
2019-05-21T13:17:15.516Z,49.79
2019-05-21T13:19:47.771Z,49.20
2019-05-21T13:22:20.510Z,48.52
2019-05-21T13:24:53.312Z,48.22
2019-05-21T13:27:25.565Z,47.04
2019-05-21T13:29:58.661Z,47.30
2019-05-21T13:32:32.202Z,47.02
2019-05-21T13:35:06.766Z,47.62
2019-05-21T13:37:39.657Z,46.88
2019-05-21T13:40:13.771Z,47.37
2019-05-21T13:42:46.350Z,47.41
2019-05-21T13:45:19.026Z,48.43
2019-05-21T13:47:51.432Z,48.82
2019-05-21T13:50:24.788Z,49.83
2019-05-21T13:52:57.470Z,50.06
2019-05-21T13:55:33.766Z,50.47
2019-05-21T13:58:04.472Z,50.14
2019-05-21T14:00:41.264Z,50.79
2019-05-21T14:03:14.535Z,48.50
2019-05-21T14:05:47.163Z,46.65
2019-05-21T14:08:19.806Z,47.51
2019-05-21T14:10:52.024Z,48.31
2019-05-21T14:13:25.156Z,48.06
2019-05-21T14:15:58.855Z,48.61
2019-05-21T14:18:31.531Z,49.02
2019-05-21T14:21:04.130Z,48.44
2019-05-21T14:23:36.994Z,48.54
2019-05-21T14:26:09.685Z,49.19
2019-05-21T14:28:42.405Z,50.33
2019-05-21T14:31:15.059Z,50.80
2019-05-21T14:33:48.016Z,51.81
2019-05-21T14:36:20.598Z,52.63
2019-05-21T14:38:53.173Z,54.71
2019-05-21T14:41:25.754Z,56.16
2019-05-21T14:43:58.423Z,56.12
2019-05-21T14:46:30.632Z,56.07
2019-05-21T14:49:03.277Z,56.99
2019-05-21T14:51:35.972Z,59.29
2019-05-21T14:54:25.036Z,57.87
2019-05-21T14:56:47.135Z,57.41
2019-05-21T14:59:17.268Z,58.70
2019-05-21T15:01:49.897Z,58.78
2019-05-21T15:04:22.749Z,59.42
2019-05-21T15:06:55.451Z,59.42
2019-05-21T15:09:28.045Z,59.66
2019-05-21T15:12:00.772Z,60.30
2019-05-21T15:14:33.445Z,60.85
2019-05-21T15:17:07.143Z,61.15
2019-05-21T15:19:41.480Z,61.10
2019-05-21T15:22:14.044Z,61.95
2019-05-21T15:24:46.722Z,56.08
2019-05-21T15:27:19.302Z,53.53
2019-05-21T15:29:52.079Z,54.25
2019-05-21T15:32:25.635Z,53.68
2019-05-21T15:34:58.867Z,52.82
2019-05-21T15:37:31.703Z,53.04
2019-05-21T15:40:05.977Z,52.70
2019-05-21T15:42:39.467Z,52.37
2019-05-21T15:45:13.173Z,52.25
2019-05-21T15:47:45.737Z,52.54
2019-05-21T15:50:19.660Z,53.58
2019-05-21T15:52:52.250Z,53.01
2019-05-21T15:55:24.927Z,53.33
2019-05-21T15:57:57.488Z,53.42
2019-05-21T16:00:30.378Z,53.34
2019-05-21T16:03:02.956Z,53.53
2019-05-21T16:05:35.738Z,53.81
2019-05-21T16:08:08.310Z,54.27
2019-05-21T16:10:40.571Z,54.50
2019-05-21T16:13:12.877Z,55.20
2019-05-21T16:15:45.527Z,55.46
2019-05-21T16:18:18.210Z,56.04
2019-05-21T16:20:51.039Z,56.66
2019-05-21T16:23:23.975Z,57.00
2019-05-21T16:25:56.654Z,57.36
2019-05-21T16:28:29.228Z,57.81
2019-05-21T16:31:01.909Z,57.75
2019-05-21T16:33:34.688Z,58.26
2019-05-21T16:36:07.782Z,59.08
2019-05-21T16:38:40.357Z,59.97
2019-05-21T16:41:12.629Z,60.73
2019-05-21T16:43:45.208Z,60.70
2019-05-21T16:46:17.886Z,61.32
2019-05-21T16:48:50.764Z,61.73
2019-05-21T16:51:23.447Z,63.43
2019-05-21T16:53:56.023Z,56.50
2019-05-21T16:56:29.011Z,52.91
2019-05-21T16:59:01.221Z,53.94
2019-05-21T17:01:33.852Z,55.47
2019-05-21T17:04:06.538Z,56.15
2019-05-21T17:06:39.225Z,57.01
2019-05-21T17:09:14.149Z,58.47
2019-05-21T17:11:59.143Z,58.84
2019-05-21T17:14:21.065Z,59.44
2019-05-21T17:16:53.725Z,60.17
2019-05-21T17:19:26.295Z,60.80
2019-05-21T17:21:59.084Z,61.45
2019-05-21T17:24:31.921Z,62.13
2019-05-21T17:27:04.280Z,60.97
2019-05-21T17:29:36.911Z,54.53
2019-05-21T17:32:09.693Z,55.49
2019-05-21T17:34:42.610Z,57.21
2019-05-21T17:37:15.356Z,58.30
2019-05-21T17:39:47.935Z,59.27
2019-05-21T17:42:20.818Z,60.47
2019-05-21T17:44:53.497Z,61.02
2019-05-21T17:47:26.704Z,61.65
2019-05-21T17:49:59.553Z,61.92
2019-05-21T17:52:32.463Z,61.70
2019-05-21T17:55:07.187Z,54.38
2019-05-21T17:57:40.377Z,54.79
2019-05-21T18:00:16.953Z,56.74
2019-05-21T18:02:52.092Z,58.54
2019-05-21T18:05:29.453Z,60.49
2019-05-21T18:08:07.769Z,61.55
2019-05-21T18:10:45.885Z,62.80
2019-05-21T18:13:26.691Z,55.86
2019-05-21T18:16:05.314Z,55.14
2019-05-21T18:18:41.416Z,58.19
2019-05-21T18:21:17.089Z,61.24
2019-05-21T18:23:49.766Z,61.59
2019-05-21T18:26:22.457Z,64.01
2019-05-21T18:28:55.227Z,57.30
2019-05-21T18:31:27.907Z,54.79
2019-05-21T18:34:02.327Z,57.01
2019-05-21T18:36:35.343Z,60.79
2019-05-21T18:39:09.529Z,64.58
2019-05-21T18:48:16.456Z,61.39
2019-05-21T18:57:38.221Z,55.70
2019-05-21T19:03:39.554Z,61.19
2019-05-21T19:06:12.163Z,63.52
2019-05-21T19:12:15.176Z,54.37
2019-05-21T19:14:47.874Z,56.43
2019-05-21T19:17:33.263Z,59.35
2019-05-21T19:19:55.262Z,60.98
2019-05-21T19:22:27.901Z,63.69
2019-05-21T19:25:00.623Z,61.38
2019-05-21T19:27:33.444Z,55.05
2019-05-21T19:30:08.848Z,55.05
2019-05-21T19:32:41.525Z,57.71
2019-05-21T19:35:14.718Z,60.07
2019-05-21T19:37:47.296Z,61.99
2019-05-21T19:40:20.074Z,64.49
2019-05-21T19:42:55.437Z,55.82
2019-05-21T19:45:27.684Z,55.00
2019-05-21T19:48:00.261Z,58.83
2019-05-21T19:50:33.041Z,61.69
2019-05-21T19:53:06.163Z,62.61
2019-05-21T19:55:39.532Z,63.07
2019-05-21T19:58:12.344Z,56.00
2019-05-21T20:00:46.527Z,56.20
2019-05-21T20:03:20.232Z,59.70
2019-05-21T20:05:53.319Z,61.49
2019-05-21T20:10:55.752Z,57.49
2019-05-21T20:13:32.738Z,55.66
2019-05-21T20:16:03.755Z,58.42
2019-05-21T20:18:36.614Z,60.91
2019-05-21T20:21:09.716Z,62.37
2019-05-21T20:23:43.100Z,62.67
2019-05-21T20:26:18.031Z,55.63
2019-05-21T20:28:50.749Z,55.79
2019-05-21T20:31:24.301Z,57.87
2019-05-21T20:33:57.197Z,60.55
2019-05-21T20:36:29.984Z,62.79
2019-05-21T20:39:02.961Z,62.19
2019-05-21T20:41:37.690Z,55.23
2019-05-21T20:44:12.311Z,55.71
2019-05-21T20:46:46.640Z,58.49
2019-05-21T20:49:20.028Z,60.09
2019-05-21T20:51:52.744Z,62.11
2019-05-21T20:54:27.541Z,63.07
2019-05-21T20:56:59.940Z,56.05
2019-05-21T20:59:32.998Z,54.76
2019-05-21T21:02:08.732Z,57.27
2019-05-21T21:04:40.724Z,60.06
2019-05-21T21:07:13.401Z,61.72
2019-05-21T21:09:46.691Z,63.25
2019-05-21T21:12:20.659Z,63.59
2019-05-21T21:14:53.992Z,55.84
2019-05-21T21:17:27.399Z,56.27
2019-05-21T21:20:00.590Z,58.27
2019-05-21T21:22:33.667Z,61.21
2019-05-21T21:25:07.197Z,62.83
2019-05-21T21:27:39.844Z,61.91
2019-05-21T21:30:13.080Z,55.62
2019-05-21T21:32:46.126Z,55.19
2019-05-21T21:35:18.906Z,58.41
2019-05-21T21:37:52.094Z,60.54
2019-05-21T21:40:25.695Z,62.49
2019-05-21T21:42:58.475Z,61.91
2019-05-21T21:45:31.258Z,55.79
2019-05-21T21:48:04.244Z,55.28
2019-05-21T21:50:37.974Z,58.45
2019-05-21T21:53:10.635Z,60.70
2019-05-21T21:55:43.407Z,62.58
2019-05-21T21:58:16.086Z,63.16
2019-05-21T22:00:58.495Z,56.28
2019-05-21T22:03:36.803Z,55.21
2019-05-21T22:06:10.860Z,57.52
2019-05-21T22:08:43.700Z,60.20
2019-05-21T22:11:16.901Z,61.77
2019-05-21T22:13:50.924Z,64.76
2019-05-21T22:16:24.702Z,63.30
2019-05-21T22:18:57.695Z,56.38
2019-05-21T22:21:30.682Z,55.08
2019-05-21T22:24:03.922Z,58.33
2019-05-21T22:26:36.553Z,59.71
2019-05-21T22:29:09.537Z,62.34
2019-05-21T22:31:42.639Z,63.09
2019-05-21T22:34:15.405Z,55.89
2019-05-21T22:36:48.088Z,57.00
2019-05-21T22:39:22.304Z,58.83
2019-05-21T22:41:54.538Z,61.41
2019-05-21T22:44:27.863Z,63.99
2019-05-21T22:47:01.061Z,60.88
2019-05-21T22:49:34.185Z,55.17
2019-05-21T22:52:06.893Z,57.07
2019-05-21T22:54:39.601Z,60.14
2019-05-21T22:57:12.282Z,62.37
2019-05-21T22:59:44.967Z,60.83
2019-05-21T23:02:19.355Z,55.17
2019-05-21T23:04:52.674Z,56.56
2019-05-21T23:07:25.097Z,59.97
2019-05-21T23:09:59.572Z,62.11
2019-05-21T23:12:33.481Z,64.28
2019-05-21T23:15:24.254Z,57.72
2019-05-21T23:17:49.476Z,56.02
2019-05-21T23:20:41.103Z,58.40
2019-05-21T23:23:15.103Z,60.94
2019-05-21T23:25:49.421Z,63.62
2019-05-21T23:28:22.508Z,56.82
2019-05-21T23:30:55.293Z,55.41
2019-05-21T23:33:28.127Z,58.63
2019-05-21T23:36:02.800Z,61.04
2019-05-21T23:38:37.180Z,63.88
2019-05-21T23:41:10.412Z,58.03
2019-05-21T23:43:43.727Z,56.16
2019-05-21T23:46:16.911Z,58.78
2019-05-21T23:48:49.785Z,61.13
2019-05-21T23:51:23.490Z,64.87
2019-05-21T23:53:56.257Z,60.25
2019-05-21T23:56:28.941Z,56.12
2019-05-21T23:59:01.623Z,58.32
